sensor_id;sensor_type;location;lat;lon;timestamp;P1;durP1;ratioP1;P2;durP2;ratioP2
78648;SDS011;67962;47.310;9.642;2023-07-28T00:02:21;1.70;;;1.13;;
78648;SDS011;67962;47.310;9.642;2023-07-28T00:04:47;2.25;;;1.27;;
78648;SDS011;67962;47.310;9.642;2023-07-28T00:07:13;2.33;;;1.52;;
78648;SDS011;67962;47.310;9.642;2023-07-28T00:09:38;4.30;;;1.38;;
78648;SDS011;67962;47.310;9.642;2023-07-28T00:12:04;2.78;;;1.20;;
78648;SDS011;67962;47.310;9.642;2023-07-28T00:14:30;2.03;;;1.10;;
78648;SDS011;67962;47.310;9.642;2023-07-28T00:16:56;3.33;;;1.30;;
78648;SDS011;67962;47.310;9.642;2023-07-28T00:19:23;1.70;;;1.10;;
78648;SDS011;67962;47.310;9.642;2023-07-28T00:21:48;1.40;;;0.95;;
78648;SDS011;67962;47.310;9.642;2023-07-28T00:24:15;4.05;;;1.27;;
78648;SDS011;67962;47.310;9.642;2023-07-28T00:26:41;2.40;;;1.20;;
78648;SDS011;67962;47.310;9.642;2023-07-28T00:29:06;3.28;;;1.52;;
78648;SDS011;67962;47.310;9.642;2023-07-28T00:31:32;2.25;;;1.30;;
78648;SDS011;67962;47.310;9.642;2023-07-28T00:33:58;5.43;;;1.50;;
78648;SDS011;67962;47.310;9.642;2023-07-28T00:36:24;2.35;;;1.13;;
78648;SDS011;67962;47.310;9.642;2023-07-28T00:38:50;3.05;;;1.35;;
78648;SDS011;67962;47.310;9.642;2023-07-28T00:41:16;3.47;;;1.45;;
78648;SDS011;67962;47.310;9.642;2023-07-28T00:43:42;3.03;;;1.05;;
78648;SDS011;67962;47.310;9.642;2023-07-28T00:46:08;4.97;;;1.50;;
78648;SDS011;67962;47.310;9.642;2023-07-28T00:48:34;2.08;;;1.20;;
78648;SDS011;67962;47.310;9.642;2023-07-28T00:51:00;1.98;;;1.17;;
78648;SDS011;67962;47.310;9.642;2023-07-28T00:53:26;2.92;;;1.45;;
78648;SDS011;67962;47.310;9.642;2023-07-28T00:55:54;2.55;;;1.15;;
78648;SDS011;67962;47.310;9.642;2023-07-28T00:58:20;6.75;;;1.42;;
78648;SDS011;67962;47.310;9.642;2023-07-28T01:00:46;1.63;;;1.13;;
78648;SDS011;67962;47.310;9.642;2023-07-28T01:03:13;4.03;;;1.13;;
78648;SDS011;67962;47.310;9.642;2023-07-28T01:11:22;5.13;;;1.70;;
78648;SDS011;67962;47.310;9.642;2023-07-28T01:13:48;3.55;;;1.40;;
78648;SDS011;67962;47.310;9.642;2023-07-28T01:16:13;1.60;;;1.00;;
78648;SDS011;67962;47.310;9.642;2023-07-28T01:18:39;2.10;;;1.30;;
78648;SDS011;67962;47.310;9.642;2023-07-28T01:21:06;2.63;;;1.20;;
78648;SDS011;67962;47.310;9.642;2023-07-28T01:26:30;2.17;;;1.40;;
78648;SDS011;67962;47.310;9.642;2023-07-28T01:29:02;2.47;;;1.35;;
78648;SDS011;67962;47.310;9.642;2023-07-28T01:31:30;3.33;;;1.40;;
78648;SDS011;67962;47.310;9.642;2023-07-28T01:33:56;3.53;;;1.40;;
78648;SDS011;67962;47.310;9.642;2023-07-28T01:36:21;2.10;;;1.48;;
78648;SDS011;67962;47.310;9.642;2023-07-28T01:38:47;2.03;;;1.25;;
78648;SDS011;67962;47.310;9.642;2023-07-28T01:41:13;1.67;;;1.30;;
78648;SDS011;67962;47.310;9.642;2023-07-28T01:43:39;3.17;;;1.40;;
78648;SDS011;67962;47.310;9.642;2023-07-28T01:46:04;2.40;;;1.50;;
78648;SDS011;67962;47.310;9.642;2023-07-28T01:48:30;2.55;;;1.40;;
78648;SDS011;67962;47.310;9.642;2023-07-28T01:50:56;2.63;;;1.52;;
78648;SDS011;67962;47.310;9.642;2023-07-28T01:53:21;2.40;;;1.38;;
78648;SDS011;67962;47.310;9.642;2023-07-28T01:55:47;1.77;;;1.33;;
78648;SDS011;67962;47.310;9.642;2023-07-28T01:58:13;2.08;;;1.23;;
78648;SDS011;67962;47.310;9.642;2023-07-28T02:00:38;1.40;;;0.90;;
78648;SDS011;67962;47.310;9.642;2023-07-28T02:03:04;2.42;;;1.17;;
78648;SDS011;67962;47.310;9.642;2023-07-28T02:05:30;1.98;;;1.27;;
78648;SDS011;67962;47.310;9.642;2023-07-28T02:07:56;2.90;;;1.27;;
78648;SDS011;67962;47.310;9.642;2023-07-28T02:10:22;3.42;;;1.40;;
78648;SDS011;67962;47.310;9.642;2023-07-28T02:12:48;3.28;;;1.38;;
78648;SDS011;67962;47.310;9.642;2023-07-28T02:15:16;3.30;;;1.38;;
78648;SDS011;67962;47.310;9.642;2023-07-28T02:17:41;3.25;;;1.25;;
78648;SDS011;67962;47.310;9.642;2023-07-28T02:20:07;2.42;;;1.20;;
78648;SDS011;67962;47.310;9.642;2023-07-28T02:22:37;2.15;;;1.13;;
78648;SDS011;67962;47.310;9.642;2023-07-28T02:25:04;1.60;;;0.88;;
78648;SDS011;67962;47.310;9.642;2023-07-28T02:27:29;2.60;;;1.20;;
78648;SDS011;67962;47.310;9.642;2023-07-28T02:29:55;2.63;;;1.65;;
78648;SDS011;67962;47.310;9.642;2023-07-28T02:32:21;2.55;;;1.50;;
78648;SDS011;67962;47.310;9.642;2023-07-28T02:34:47;2.45;;;1.25;;
78648;SDS011;67962;47.310;9.642;2023-07-28T02:37:14;1.77;;;1.20;;
78648;SDS011;67962;47.310;9.642;2023-07-28T02:39:40;1.85;;;1.30;;
78648;SDS011;67962;47.310;9.642;2023-07-28T02:42:06;1.40;;;1.00;;
78648;SDS011;67962;47.310;9.642;2023-07-28T02:44:31;1.63;;;1.13;;
78648;SDS011;67962;47.310;9.642;2023-07-28T02:46:57;5.18;;;1.08;;
78648;SDS011;67962;47.310;9.642;2023-07-28T02:49:23;1.70;;;1.00;;
78648;SDS011;67962;47.310;9.642;2023-07-28T02:51:48;4.22;;;1.45;;
78648;SDS011;67962;47.310;9.642;2023-07-28T02:54:14;3.13;;;1.00;;
78648;SDS011;67962;47.310;9.642;2023-07-28T02:56:40;3.33;;;1.38;;
78648;SDS011;67962;47.310;9.642;2023-07-28T02:59:05;2.63;;;1.30;;
78648;SDS011;67962;47.310;9.642;2023-07-28T03:01:31;2.60;;;1.52;;
78648;SDS011;67962;47.310;9.642;2023-07-28T03:03:58;4.60;;;1.45;;
78648;SDS011;67962;47.310;9.642;2023-07-28T03:06:27;2.33;;;1.35;;
78648;SDS011;67962;47.310;9.642;2023-07-28T03:08:53;1.80;;;1.25;;
78648;SDS011;67962;47.310;9.642;2023-07-28T03:11:19;2.05;;;1.40;;
78648;SDS011;67962;47.310;9.642;2023-07-28T03:13:45;1.98;;;1.17;;
78648;SDS011;67962;47.310;9.642;2023-07-28T03:16:11;2.20;;;1.25;;
78648;SDS011;67962;47.310;9.642;2023-07-28T03:18:37;3.55;;;1.30;;
78648;SDS011;67962;47.310;9.642;2023-07-28T03:21:02;2.15;;;1.38;;
78648;SDS011;67962;47.310;9.642;2023-07-28T03:23:28;3.05;;;1.58;;
78648;SDS011;67962;47.310;9.642;2023-07-28T03:25:54;2.85;;;1.30;;
78648;SDS011;67962;47.310;9.642;2023-07-28T03:28:20;1.85;;;1.13;;
78648;SDS011;67962;47.310;9.642;2023-07-28T03:30:45;3.95;;;1.30;;
78648;SDS011;67962;47.310;9.642;2023-07-28T03:33:11;1.83;;;1.08;;
78648;SDS011;67962;47.310;9.642;2023-07-28T03:35:37;3.67;;;1.45;;
78648;SDS011;67962;47.310;9.642;2023-07-28T03:38:03;1.75;;;1.10;;
78648;SDS011;67962;47.310;9.642;2023-07-28T03:40:28;4.30;;;1.30;;
78648;SDS011;67962;47.310;9.642;2023-07-28T03:42:54;1.92;;;1.30;;
78648;SDS011;67962;47.310;9.642;2023-07-28T03:45:20;4.00;;;1.40;;
78648;SDS011;67962;47.310;9.642;2023-07-28T03:47:45;2.72;;;1.17;;
78648;SDS011;67962;47.310;9.642;2023-07-28T03:50:11;4.30;;;1.40;;
78648;SDS011;67962;47.310;9.642;2023-07-28T03:52:37;1.85;;;1.10;;
78648;SDS011;67962;47.310;9.642;2023-07-28T03:55:03;3.08;;;1.25;;
78648;SDS011;67962;47.310;9.642;2023-07-28T03:57:29;3.03;;;1.25;;
78648;SDS011;67962;47.310;9.642;2023-07-28T03:59:54;2.17;;;1.30;;
78648;SDS011;67962;47.310;9.642;2023-07-28T04:02:20;1.90;;;1.05;;
78648;SDS011;67962;47.310;9.642;2023-07-28T04:04:46;2.20;;;1.20;;
78648;SDS011;67962;47.310;9.642;2023-07-28T04:07:12;1.67;;;1.00;;
78648;SDS011;67962;47.310;9.642;2023-07-28T04:09:37;10.07;;;1.80;;
78648;SDS011;67962;47.310;9.642;2023-07-28T04:12:03;3.70;;;1.25;;
78648;SDS011;67962;47.310;9.642;2023-07-28T04:14:29;1.98;;;0.98;;
78648;SDS011;67962;47.310;9.642;2023-07-28T04:16:55;3.97;;;1.40;;
78648;SDS011;67962;47.310;9.642;2023-07-28T04:19:20;3.03;;;1.13;;
78648;SDS011;67962;47.310;9.642;2023-07-28T04:21:46;1.60;;;1.05;;
78648;SDS011;67962;47.310;9.642;2023-07-28T04:24:12;3.40;;;1.48;;
78648;SDS011;67962;47.310;9.642;2023-07-28T04:26:37;4.28;;;1.50;;
78648;SDS011;67962;47.310;9.642;2023-07-28T04:29:03;2.58;;;1.50;;
78648;SDS011;67962;47.310;9.642;2023-07-28T04:31:29;3.92;;;1.40;;
78648;SDS011;67962;47.310;9.642;2023-07-28T04:33:55;2.88;;;1.50;;
78648;SDS011;67962;47.310;9.642;2023-07-28T04:36:20;6.47;;;1.70;;
78648;SDS011;67962;47.310;9.642;2023-07-28T04:38:46;2.38;;;1.50;;
78648;SDS011;67962;47.310;9.642;2023-07-28T04:41:11;2.83;;;1.13;;
78648;SDS011;67962;47.310;9.642;2023-07-28T04:43:37;4.68;;;1.60;;
78648;SDS011;67962;47.310;9.642;2023-07-28T04:46:03;2.70;;;1.30;;
78648;SDS011;67962;47.310;9.642;2023-07-28T04:48:28;2.40;;;1.70;;
78648;SDS011;67962;47.310;9.642;2023-07-28T04:50:54;3.03;;;1.48;;
78648;SDS011;67962;47.310;9.642;2023-07-28T04:53:20;1.88;;;1.33;;
78648;SDS011;67962;47.310;9.642;2023-07-28T04:55:46;2.92;;;1.33;;
78648;SDS011;67962;47.310;9.642;2023-07-28T04:58:11;3.90;;;1.60;;
78648;SDS011;67962;47.310;9.642;2023-07-28T05:00:37;2.47;;;1.20;;
78648;SDS011;67962;47.310;9.642;2023-07-28T05:03:03;1.52;;;1.13;;
78648;SDS011;67962;47.310;9.642;2023-07-28T05:05:29;6.85;;;1.77;;
78648;SDS011;67962;47.310;9.642;2023-07-28T05:07:54;2.75;;;1.73;;
78648;SDS011;67962;47.310;9.642;2023-07-28T05:10:20;2.83;;;1.60;;
78648;SDS011;67962;47.310;9.642;2023-07-28T05:12:46;2.95;;;1.50;;
78648;SDS011;67962;47.310;9.642;2023-07-28T05:15:13;2.05;;;1.48;;
78648;SDS011;67962;47.310;9.642;2023-07-28T05:17:40;1.75;;;1.20;;
78648;SDS011;67962;47.310;9.642;2023-07-28T05:20:06;2.38;;;1.45;;
78648;SDS011;67962;47.310;9.642;2023-07-28T05:22:32;3.15;;;1.45;;
78648;SDS011;67962;47.310;9.642;2023-07-28T05:24:58;3.83;;;1.63;;
78648;SDS011;67962;47.310;9.642;2023-07-28T05:27:23;3.30;;;1.60;;
78648;SDS011;67962;47.310;9.642;2023-07-28T05:29:49;2.42;;;1.67;;
78648;SDS011;67962;47.310;9.642;2023-07-28T05:32:15;3.25;;;1.88;;
78648;SDS011;67962;47.310;9.642;2023-07-28T05:34:44;2.90;;;1.83;;
78648;SDS011;67962;47.310;9.642;2023-07-28T05:37:10;2.85;;;1.95;;
78648;SDS011;67962;47.310;9.642;2023-07-28T05:39:36;6.90;;;1.70;;
78648;SDS011;67962;47.310;9.642;2023-07-28T05:42:01;3.97;;;1.65;;
78648;SDS011;67962;47.310;9.642;2023-07-28T05:44:27;8.55;;;2.10;;
78648;SDS011;67962;47.310;9.642;2023-07-28T05:46:53;2.88;;;1.70;;
78648;SDS011;67962;47.310;9.642;2023-07-28T05:49:19;2.70;;;1.55;;
78648;SDS011;67962;47.310;9.642;2023-07-28T05:51:45;3.88;;;1.73;;
78648;SDS011;67962;47.310;9.642;2023-07-28T05:54:14;3.42;;;1.60;;
78648;SDS011;67962;47.310;9.642;2023-07-28T05:56:40;2.30;;;1.52;;
78648;SDS011;67962;47.310;9.642;2023-07-28T05:59:06;3.70;;;1.65;;
78648;SDS011;67962;47.310;9.642;2023-07-28T06:01:32;6.70;;;1.50;;
78648;SDS011;67962;47.310;9.642;2023-07-28T06:03:58;3.00;;;1.60;;
78648;SDS011;67962;47.310;9.642;2023-07-28T06:06:26;3.13;;;1.70;;
78648;SDS011;67962;47.310;9.642;2023-07-28T06:08:52;4.72;;;1.73;;
78648;SDS011;67962;47.310;9.642;2023-07-28T06:11:19;1.70;;;1.30;;
78648;SDS011;67962;47.310;9.642;2023-07-28T06:13:45;2.83;;;1.70;;
78648;SDS011;67962;47.310;9.642;2023-07-28T06:16:12;3.85;;;2.00;;
78648;SDS011;67962;47.310;9.642;2023-07-28T06:18:38;2.30;;;1.42;;
78648;SDS011;67962;47.310;9.642;2023-07-28T06:21:04;2.75;;;1.60;;
78648;SDS011;67962;47.310;9.642;2023-07-28T06:23:29;2.78;;;1.95;;
78648;SDS011;67962;47.310;9.642;2023-07-28T06:25:55;3.08;;;2.00;;
78648;SDS011;67962;47.310;9.642;2023-07-28T06:28:21;3.45;;;1.70;;
78648;SDS011;67962;47.310;9.642;2023-07-28T06:30:47;2.22;;;1.70;;
78648;SDS011;67962;47.310;9.642;2023-07-28T06:33:12;4.30;;;2.00;;
78648;SDS011;67962;47.310;9.642;2023-07-28T06:35:38;4.97;;;1.63;;
78648;SDS011;67962;47.310;9.642;2023-07-28T06:38:04;4.05;;;1.70;;
78648;SDS011;67962;47.310;9.642;2023-07-28T06:40:30;15.55;;;2.40;;
78648;SDS011;67962;47.310;9.642;2023-07-28T06:42:55;10.23;;;2.30;;
78648;SDS011;67962;47.310;9.642;2023-07-28T06:45:21;15.32;;;2.30;;
78648;SDS011;67962;47.310;9.642;2023-07-28T06:47:47;10.20;;;2.53;;
78648;SDS011;67962;47.310;9.642;2023-07-28T06:50:13;10.60;;;2.30;;
78648;SDS011;67962;47.310;9.642;2023-07-28T06:52:39;2.85;;;1.67;;
78648;SDS011;67962;47.310;9.642;2023-07-28T06:55:05;2.85;;;1.90;;
78648;SDS011;67962;47.310;9.642;2023-07-28T06:57:31;2.17;;;1.33;;
78648;SDS011;67962;47.310;9.642;2023-07-28T06:59:57;2.95;;;1.77;;
78648;SDS011;67962;47.310;9.642;2023-07-28T07:02:23;2.45;;;1.50;;
78648;SDS011;67962;47.310;9.642;2023-07-28T07:04:48;2.42;;;1.55;;
78648;SDS011;67962;47.310;9.642;2023-07-28T07:07:14;4.20;;;1.67;;
78648;SDS011;67962;47.310;9.642;2023-07-28T07:09:40;2.63;;;1.65;;
78648;SDS011;67962;47.310;9.642;2023-07-28T07:12:07;3.65;;;1.70;;
78648;SDS011;67962;47.310;9.642;2023-07-28T07:14:34;2.60;;;1.50;;
78648;SDS011;67962;47.310;9.642;2023-07-28T07:16:59;5.53;;;2.03;;
78648;SDS011;67962;47.310;9.642;2023-07-28T07:19:25;4.68;;;1.70;;
78648;SDS011;67962;47.310;9.642;2023-07-28T07:21:52;6.85;;;2.33;;
78648;SDS011;67962;47.310;9.642;2023-07-28T07:24:18;3.95;;;1.90;;
78648;SDS011;67962;47.310;9.642;2023-07-28T07:26:44;3.83;;;1.60;;
78648;SDS011;67962;47.310;9.642;2023-07-28T07:29:10;4.82;;;2.10;;
78648;SDS011;67962;47.310;9.642;2023-07-28T07:31:35;3.53;;;1.60;;
78648;SDS011;67962;47.310;9.642;2023-07-28T07:34:01;3.30;;;1.50;;
78648;SDS011;67962;47.310;9.642;2023-07-28T07:36:29;5.72;;;1.90;;
78648;SDS011;67962;47.310;9.642;2023-07-28T07:38:55;2.10;;;1.30;;
78648;SDS011;67962;47.310;9.642;2023-07-28T07:41:21;4.40;;;1.80;;
78648;SDS011;67962;47.310;9.642;2023-07-28T07:43:48;3.80;;;1.60;;
78648;SDS011;67962;47.310;9.642;2023-07-28T07:46:15;2.17;;;1.38;;
78648;SDS011;67962;47.310;9.642;2023-07-28T07:48:41;5.28;;;1.70;;
78648;SDS011;67962;47.310;9.642;2023-07-28T07:51:07;5.80;;;1.90;;
78648;SDS011;67962;47.310;9.642;2023-07-28T07:53:34;2.88;;;1.75;;
78648;SDS011;67962;47.310;9.642;2023-07-28T07:56:03;2.17;;;1.70;;
78648;SDS011;67962;47.310;9.642;2023-07-28T07:58:29;3.42;;;1.70;;
78648;SDS011;67962;47.310;9.642;2023-07-28T08:00:55;5.78;;;1.90;;
78648;SDS011;67962;47.310;9.642;2023-07-28T08:03:21;2.78;;;1.73;;
78648;SDS011;67962;47.310;9.642;2023-07-28T08:05:47;3.67;;;1.70;;
78648;SDS011;67962;47.310;9.642;2023-07-28T08:08:13;7.85;;;1.88;;
78648;SDS011;67962;47.310;9.642;2023-07-28T08:10:42;3.20;;;1.60;;
78648;SDS011;67962;47.310;9.642;2023-07-28T08:13:08;4.03;;;1.67;;
78648;SDS011;67962;47.310;9.642;2023-07-28T08:15:34;5.18;;;1.60;;
78648;SDS011;67962;47.310;9.642;2023-07-28T08:17:59;2.88;;;1.50;;
78648;SDS011;67962;47.310;9.642;2023-07-28T08:20:25;6.57;;;1.88;;
78648;SDS011;67962;47.310;9.642;2023-07-28T08:22:51;3.72;;;1.55;;
78648;SDS011;67962;47.310;9.642;2023-07-28T08:25:17;3.13;;;1.73;;
78648;SDS011;67962;47.310;9.642;2023-07-28T08:27:43;2.00;;;1.42;;
78648;SDS011;67962;47.310;9.642;2023-07-28T08:30:09;3.70;;;1.80;;
78648;SDS011;67962;47.310;9.642;2023-07-28T08:32:35;2.83;;;1.73;;
78648;SDS011;67962;47.310;9.642;2023-07-28T08:35:01;4.35;;;2.05;;
78648;SDS011;67962;47.310;9.642;2023-07-28T08:37:28;3.67;;;2.10;;
78648;SDS011;67962;47.310;9.642;2023-07-28T08:39:54;2.92;;;1.60;;
78648;SDS011;67962;47.310;9.642;2023-07-28T08:42:20;2.97;;;1.80;;
78648;SDS011;67962;47.310;9.642;2023-07-28T08:44:49;4.45;;;1.80;;
78648;SDS011;67962;47.310;9.642;2023-07-28T08:47:17;5.97;;;1.90;;
78648;SDS011;67962;47.310;9.642;2023-07-28T08:49:44;2.72;;;1.95;;
78648;SDS011;67962;47.310;9.642;2023-07-28T08:52:09;2.70;;;1.55;;
78648;SDS011;67962;47.310;9.642;2023-07-28T08:54:35;3.15;;;1.63;;
78648;SDS011;67962;47.310;9.642;2023-07-28T08:57:01;2.85;;;1.67;;
78648;SDS011;67962;47.310;9.642;2023-07-28T08:59:28;5.30;;;1.75;;
78648;SDS011;67962;47.310;9.642;2023-07-28T09:01:55;2.75;;;1.67;;
78648;SDS011;67962;47.310;9.642;2023-07-28T09:04:25;3.03;;;1.83;;
78648;SDS011;67962;47.310;9.642;2023-07-28T09:06:51;3.47;;;1.55;;
78648;SDS011;67962;47.310;9.642;2023-07-28T09:09:18;4.18;;;1.60;;
78648;SDS011;67962;47.310;9.642;2023-07-28T09:11:51;3.88;;;1.80;;
78648;SDS011;67962;47.310;9.642;2023-07-28T09:14:18;2.95;;;1.60;;
78648;SDS011;67962;47.310;9.642;2023-07-28T09:16:45;3.50;;;1.85;;
78648;SDS011;67962;47.310;9.642;2023-07-28T09:19:11;3.97;;;1.70;;
78648;SDS011;67962;47.310;9.642;2023-07-28T09:21:38;2.78;;;1.83;;
78648;SDS011;67962;47.310;9.642;2023-07-28T09:24:07;2.17;;;1.58;;
78648;SDS011;67962;47.310;9.642;2023-07-28T09:26:39;2.65;;;1.67;;
78648;SDS011;67962;47.310;9.642;2023-07-28T09:29:15;3.55;;;1.70;;
78648;SDS011;67962;47.310;9.642;2023-07-28T09:31:43;4.47;;;2.10;;
78648;SDS011;67962;47.310;9.642;2023-07-28T09:34:09;4.57;;;1.67;;
78648;SDS011;67962;47.310;9.642;2023-07-28T09:36:52;3.72;;;1.70;;
78648;SDS011;67962;47.310;9.642;2023-07-28T09:39:24;3.03;;;1.60;;
78648;SDS011;67962;47.310;9.642;2023-07-28T09:41:51;3.17;;;1.90;;
78648;SDS011;67962;47.310;9.642;2023-07-28T09:44:17;5.00;;;1.95;;
78648;SDS011;67962;47.310;9.642;2023-07-28T09:46:55;2.38;;;1.63;;
78648;SDS011;67962;47.310;9.642;2023-07-28T09:49:29;3.00;;;1.80;;
78648;SDS011;67962;47.310;9.642;2023-07-28T09:52:04;6.00;;;2.00;;
78648;SDS011;67962;47.310;9.642;2023-07-28T09:54:34;3.33;;;1.90;;
78648;SDS011;67962;47.310;9.642;2023-07-28T09:57:14;3.40;;;2.03;;
78648;SDS011;67962;47.310;9.642;2023-07-28T09:59:45;4.90;;;1.83;;
78648;SDS011;67962;47.310;9.642;2023-07-28T10:02:13;3.08;;;1.77;;
78648;SDS011;67962;47.310;9.642;2023-07-28T10:04:40;3.78;;;1.92;;
78648;SDS011;67962;47.310;9.642;2023-07-28T10:07:05;2.05;;;1.40;;
78648;SDS011;67962;47.310;9.642;2023-07-28T10:09:32;1.92;;;1.30;;
78648;SDS011;67962;47.310;9.642;2023-07-28T10:11:59;2.75;;;1.77;;
78648;SDS011;67962;47.310;9.642;2023-07-28T10:14:27;2.53;;;1.67;;
78648;SDS011;67962;47.310;9.642;2023-07-28T10:17:03;3.33;;;1.90;;
78648;SDS011;67962;47.310;9.642;2023-07-28T10:19:31;2.15;;;1.45;;
78648;SDS011;67962;47.310;9.642;2023-07-28T10:22:06;2.85;;;1.38;;
78648;SDS011;67962;47.310;9.642;2023-07-28T10:24:52;1.70;;;1.40;;
78648;SDS011;67962;47.310;9.642;2023-07-28T10:30:02;3.17;;;1.63;;
78648;SDS011;67962;47.310;9.642;2023-07-28T10:32:36;2.10;;;1.55;;
78648;SDS011;67962;47.310;9.642;2023-07-28T10:35:06;3.13;;;1.77;;
78648;SDS011;67962;47.310;9.642;2023-07-28T10:37:38;4.57;;;1.70;;
78648;SDS011;67962;47.310;9.642;2023-07-28T10:40:30;2.03;;;1.40;;
78648;SDS011;67962;47.310;9.642;2023-07-28T10:43:01;3.40;;;1.60;;
78648;SDS011;67962;47.310;9.642;2023-07-28T10:45:28;2.47;;;1.65;;
78648;SDS011;67962;47.310;9.642;2023-07-28T10:47:56;4.60;;;1.95;;
78648;SDS011;67962;47.310;9.642;2023-07-28T10:50:25;2.90;;;1.52;;
78648;SDS011;67962;47.310;9.642;2023-07-28T10:52:55;2.05;;;1.45;;
78648;SDS011;67962;47.310;9.642;2023-07-28T10:55:24;2.90;;;1.50;;
78648;SDS011;67962;47.310;9.642;2023-07-28T10:57:51;2.17;;;1.45;;
78648;SDS011;67962;47.310;9.642;2023-07-28T11:00:19;3.72;;;1.58;;
78648;SDS011;67962;47.310;9.642;2023-07-28T11:02:52;2.28;;;1.75;;
78648;SDS011;67962;47.310;9.642;2023-07-28T11:05:29;2.70;;;1.73;;
78648;SDS011;67962;47.310;9.642;2023-07-28T11:07:59;2.83;;;1.60;;
78648;SDS011;67962;47.310;9.642;2023-07-28T11:10:29;3.88;;;1.70;;
78648;SDS011;67962;47.310;9.642;2023-07-28T11:12:57;2.10;;;1.60;;
78648;SDS011;67962;47.310;9.642;2023-07-28T11:15:25;3.00;;;1.80;;
78648;SDS011;67962;47.310;9.642;2023-07-28T11:17:51;5.50;;;1.90;;
78648;SDS011;67962;47.310;9.642;2023-07-28T11:22:53;1.48;;;1.38;;
78648;SDS011;67962;47.310;9.642;2023-07-28T11:25:27;2.83;;;1.83;;
78648;SDS011;67962;47.310;9.642;2023-07-28T11:27:53;3.97;;;1.80;;
78648;SDS011;67962;47.310;9.642;2023-07-28T11:30:23;2.72;;;1.90;;
78648;SDS011;67962;47.310;9.642;2023-07-28T11:32:50;2.25;;;1.70;;
78648;SDS011;67962;47.310;9.642;2023-07-28T11:35:17;2.95;;;1.67;;
78648;SDS011;67962;47.310;9.642;2023-07-28T11:37:45;2.85;;;2.10;;
78648;SDS011;67962;47.310;9.642;2023-07-28T11:40:21;2.25;;;1.70;;
78648;SDS011;67962;47.310;9.642;2023-07-28T11:42:49;2.53;;;1.92;;
78648;SDS011;67962;47.310;9.642;2023-07-28T11:45:17;2.22;;;1.80;;
78648;SDS011;67962;47.310;9.642;2023-07-28T11:47:54;3.08;;;1.73;;
78648;SDS011;67962;47.310;9.642;2023-07-28T11:50:25;2.88;;;1.83;;
78648;SDS011;67962;47.310;9.642;2023-07-28T11:52:51;3.15;;;1.60;;
78648;SDS011;67962;47.310;9.642;2023-07-28T11:55:17;6.80;;;1.80;;
78648;SDS011;67962;47.310;9.642;2023-07-28T11:57:44;20.02;;;2.38;;
78648;SDS011;67962;47.310;9.642;2023-07-28T12:00:10;3.20;;;1.90;;
78648;SDS011;67962;47.310;9.642;2023-07-28T12:02:37;2.78;;;2.00;;
78648;SDS011;67962;47.310;9.642;2023-07-28T12:05:11;4.28;;;1.80;;
78648;SDS011;67962;47.310;9.642;2023-07-28T12:07:41;2.10;;;1.60;;
78648;SDS011;67962;47.310;9.642;2023-07-28T12:10:12;3.55;;;1.80;;
78648;SDS011;67962;47.310;9.642;2023-07-28T12:12:41;2.63;;;1.80;;
78648;SDS011;67962;47.310;9.642;2023-07-28T12:15:24;4.25;;;2.00;;
78648;SDS011;67962;47.310;9.642;2023-07-28T12:18:12;3.28;;;1.77;;
78648;SDS011;67962;47.310;9.642;2023-07-28T12:20:40;2.55;;;1.70;;
78648;SDS011;67962;47.310;9.642;2023-07-28T12:23:07;2.55;;;1.95;;
78648;SDS011;67962;47.310;9.642;2023-07-28T12:25:34;3.10;;;2.00;;
78648;SDS011;67962;47.310;9.642;2023-07-28T12:28:03;3.72;;;1.80;;
78648;SDS011;67962;47.310;9.642;2023-07-28T12:30:28;2.67;;;1.60;;
78648;SDS011;67962;47.310;9.642;2023-07-28T12:32:54;3.35;;;1.55;;
78648;SDS011;67962;47.310;9.642;2023-07-28T12:35:20;2.25;;;1.63;;
78648;SDS011;67962;47.310;9.642;2023-07-28T12:37:48;3.20;;;1.65;;
78648;SDS011;67962;47.310;9.642;2023-07-28T12:40:17;2.88;;;1.73;;
78648;SDS011;67962;47.310;9.642;2023-07-28T12:42:44;3.05;;;1.83;;
78648;SDS011;67962;47.310;9.642;2023-07-28T12:45:11;3.83;;;1.88;;
78648;SDS011;67962;47.310;9.642;2023-07-28T12:47:37;3.85;;;1.63;;
78648;SDS011;67962;47.310;9.642;2023-07-28T12:50:03;2.28;;;1.88;;
78648;SDS011;67962;47.310;9.642;2023-07-28T12:52:31;2.75;;;1.85;;
78648;SDS011;67962;47.310;9.642;2023-07-28T12:54:57;3.35;;;1.80;;
78648;SDS011;67962;47.310;9.642;2023-07-28T12:57:23;2.88;;;1.98;;
78648;SDS011;67962;47.310;9.642;2023-07-28T12:59:49;3.53;;;2.00;;
78648;SDS011;67962;47.310;9.642;2023-07-28T13:02:17;2.67;;;1.85;;
78648;SDS011;67962;47.310;9.642;2023-07-28T13:04:43;2.55;;;1.75;;
78648;SDS011;67962;47.310;9.642;2023-07-28T13:07:08;2.65;;;1.90;;
78648;SDS011;67962;47.310;9.642;2023-07-28T13:09:34;2.90;;;2.10;;
78648;SDS011;67962;47.310;9.642;2023-07-28T13:12:00;2.55;;;1.90;;
78648;SDS011;67962;47.310;9.642;2023-07-28T13:14:26;2.63;;;1.80;;
78648;SDS011;67962;47.310;9.642;2023-07-28T13:16:51;2.50;;;2.00;;
78648;SDS011;67962;47.310;9.642;2023-07-28T13:19:17;2.13;;;1.70;;
78648;SDS011;67962;47.310;9.642;2023-07-28T13:21:43;3.63;;;2.13;;
78648;SDS011;67962;47.310;9.642;2023-07-28T13:24:09;3.92;;;1.98;;
78648;SDS011;67962;47.310;9.642;2023-07-28T13:26:34;2.72;;;1.83;;
78648;SDS011;67962;47.310;9.642;2023-07-28T13:29:00;2.95;;;2.00;;
78648;SDS011;67962;47.310;9.642;2023-07-28T13:31:27;2.72;;;2.17;;
78648;SDS011;67962;47.310;9.642;2023-07-28T13:33:53;3.15;;;2.22;;
78648;SDS011;67962;47.310;9.642;2023-07-28T13:36:19;3.25;;;2.00;;
78648;SDS011;67962;47.310;9.642;2023-07-28T13:38:45;3.33;;;2.10;;
78648;SDS011;67962;47.310;9.642;2023-07-28T13:41:11;2.95;;;1.88;;
78648;SDS011;67962;47.310;9.642;2023-07-28T13:43:37;2.85;;;2.10;;
78648;SDS011;67962;47.310;9.642;2023-07-28T13:46:06;4.38;;;2.15;;
78648;SDS011;67962;47.310;9.642;2023-07-28T13:48:32;3.35;;;2.00;;
78648;SDS011;67962;47.310;9.642;2023-07-28T13:50:58;3.50;;;1.70;;
78648;SDS011;67962;47.310;9.642;2023-07-28T13:53:24;4.10;;;2.38;;
78648;SDS011;67962;47.310;9.642;2023-07-28T13:55:50;2.85;;;1.85;;
78648;SDS011;67962;47.310;9.642;2023-07-28T13:58:16;3.97;;;1.70;;
78648;SDS011;67962;47.310;9.642;2023-07-28T14:00:43;4.22;;;2.33;;
78648;SDS011;67962;47.310;9.642;2023-07-28T14:03:08;4.03;;;2.10;;
78648;SDS011;67962;47.310;9.642;2023-07-28T14:05:35;3.22;;;2.10;;
78648;SDS011;67962;47.310;9.642;2023-07-28T14:08:01;2.92;;;2.10;;
78648;SDS011;67962;47.310;9.642;2023-07-28T14:10:26;2.80;;;2.17;;
78648;SDS011;67962;47.310;9.642;2023-07-28T14:12:52;3.65;;;2.30;;
78648;SDS011;67962;47.310;9.642;2023-07-28T14:15:18;2.50;;;1.75;;
78648;SDS011;67962;47.310;9.642;2023-07-28T14:17:44;2.33;;;1.88;;
78648;SDS011;67962;47.310;9.642;2023-07-28T14:20:10;3.05;;;1.98;;
78648;SDS011;67962;47.310;9.642;2023-07-28T14:22:36;2.95;;;1.80;;
78648;SDS011;67962;47.310;9.642;2023-07-28T14:25:02;6.07;;;2.00;;
78648;SDS011;67962;47.310;9.642;2023-07-28T14:27:29;3.05;;;1.98;;
78648;SDS011;67962;47.310;9.642;2023-07-28T14:29:54;3.45;;;2.03;;
78648;SDS011;67962;47.310;9.642;2023-07-28T14:32:20;6.53;;;1.80;;
78648;SDS011;67962;47.310;9.642;2023-07-28T14:34:46;2.22;;;1.90;;
78648;SDS011;67962;47.310;9.642;2023-07-28T14:37:13;2.53;;;1.90;;
78648;SDS011;67962;47.310;9.642;2023-07-28T14:39:38;3.90;;;2.05;;
78648;SDS011;67962;47.310;9.642;2023-07-28T14:42:04;2.63;;;1.95;;
78648;SDS011;67962;47.310;9.642;2023-07-28T14:44:30;3.13;;;2.22;;
78648;SDS011;67962;47.310;9.642;2023-07-28T14:46:56;2.90;;;2.25;;
78648;SDS011;67962;47.310;9.642;2023-07-28T14:49:21;3.28;;;2.10;;
78648;SDS011;67962;47.310;9.642;2023-07-28T14:51:47;2.72;;;1.95;;
78648;SDS011;67962;47.310;9.642;2023-07-28T14:54:13;2.30;;;1.88;;
78648;SDS011;67962;47.310;9.642;2023-07-28T14:56:39;2.83;;;1.90;;
78648;SDS011;67962;47.310;9.642;2023-07-28T14:59:05;2.75;;;2.10;;
78648;SDS011;67962;47.310;9.642;2023-07-28T15:01:31;2.63;;;1.90;;